createdAt,value
2023-05-01T00:01:00.075Z,12.63
2023-05-01T00:03:28.460Z,12.75
2023-05-01T00:06:01.484Z,18.60
2023-05-01T00:11:03.199Z,15.88
2023-05-01T00:13:31.646Z,15.15
2023-05-01T00:15:59.763Z,24.42
2023-05-01T00:18:28.003Z,15.60
2023-05-01T00:20:56.714Z,16.50
2023-05-01T00:23:24.809Z,20.98
2023-05-01T00:25:52.946Z,14.65
2023-05-01T00:28:22.472Z,16.38
2023-05-01T00:30:50.769Z,12.55
2023-05-01T00:33:18.945Z,17.23
2023-05-01T00:35:47.228Z,17.73
2023-05-01T00:38:15.415Z,18.80
2023-05-01T00:40:44.000Z,17.35
2023-05-01T00:43:12.954Z,20.33
2023-05-01T00:45:46.051Z,17.50
2023-05-01T00:48:15.026Z,21.88
2023-05-01T00:50:45.413Z,19.40
2023-05-01T00:53:13.845Z,14.70
2023-05-01T00:55:43.530Z,17.70
2023-05-01T00:58:12.397Z,16.88
2023-05-01T01:00:42.174Z,15.60
2023-05-01T01:03:10.458Z,15.75
2023-05-01T01:05:44.051Z,20.63
2023-05-01T01:08:24.773Z,18.83
2023-05-01T01:10:58.127Z,17.98
2023-05-01T01:13:32.720Z,13.55
2023-05-01T01:16:09.154Z,20.08
2023-05-01T01:18:42.621Z,16.67
2023-05-01T01:21:17.445Z,19.83
2023-05-01T01:24:24.633Z,20.55
2023-05-01T01:27:32.002Z,17.02
2023-05-01T01:30:27.180Z,17.50
2023-05-01T01:33:18.761Z,22.20
2023-05-01T01:35:57.454Z,18.60
2023-05-01T01:38:31.441Z,18.63
2023-05-01T01:41:05.683Z,15.98
2023-05-01T01:43:40.806Z,18.75
2023-05-01T01:46:11.602Z,17.90
2023-05-01T01:48:43.479Z,23.20
2023-05-01T01:51:17.597Z,19.88
2023-05-01T01:53:49.399Z,17.67
2023-05-01T01:56:22.857Z,22.95
2023-05-01T01:58:53.860Z,21.80
2023-05-01T02:01:23.377Z,22.75
2023-05-01T02:03:52.941Z,23.00
2023-05-01T02:06:24.371Z,25.20
2023-05-01T02:08:53.018Z,20.30
2023-05-01T02:11:22.870Z,20.88
2023-05-01T02:13:52.559Z,22.73
2023-05-01T02:16:23.000Z,24.42
2023-05-01T02:18:51.791Z,27.35
2023-05-01T02:21:25.100Z,23.67
2023-05-01T02:23:53.471Z,21.80
2023-05-01T02:26:25.386Z,24.73
2023-05-01T02:28:53.411Z,21.40
2023-05-01T02:31:23.038Z,24.35
2023-05-01T02:33:51.235Z,21.65
2023-05-01T02:36:19.376Z,27.70
2023-05-01T02:38:51.158Z,23.50
2023-05-01T02:41:23.090Z,26.05
2023-05-01T02:43:57.708Z,28.50
2023-05-01T02:46:31.482Z,23.95
2023-05-01T02:49:02.708Z,19.35
2023-05-01T02:51:31.800Z,18.42
2023-05-01T02:54:03.194Z,20.85
2023-05-01T02:56:32.564Z,18.92
2023-05-01T02:59:00.703Z,23.63
2023-05-01T03:01:29.822Z,24.58
2023-05-01T03:03:58.219Z,28.35
2023-05-01T03:06:28.959Z,29.02
2023-05-01T03:08:57.041Z,23.88
2023-05-01T03:11:26.884Z,21.55
2023-05-01T03:13:54.965Z,22.83
2023-05-01T03:16:23.056Z,19.15
2023-05-01T03:18:51.299Z,21.77
2023-05-01T03:21:19.460Z,28.73
2023-05-01T03:23:47.546Z,27.85
2023-05-01T03:26:15.592Z,23.58
2023-05-01T03:28:47.134Z,27.33
2023-05-01T03:31:15.382Z,20.05
2023-05-01T03:33:45.889Z,19.20
2023-05-01T03:36:16.042Z,22.52
2023-05-01T03:38:45.980Z,21.67
2023-05-01T03:41:33.955Z,24.75
2023-05-01T03:44:11.175Z,20.42
2023-05-01T03:46:42.016Z,20.33
2023-05-01T03:49:15.541Z,20.33
2023-05-01T03:51:48.200Z,19.67
2023-05-01T03:54:16.730Z,23.17
2023-05-01T03:57:05.443Z,20.70
2023-05-01T03:59:35.402Z,22.95
2023-05-01T04:02:05.099Z,18.77
2023-05-01T04:04:36.088Z,19.17
2023-05-01T04:07:04.270Z,19.80
2023-05-01T04:09:32.556Z,19.70
2023-05-01T04:12:02.287Z,21.17
2023-05-01T04:14:30.991Z,18.40
2023-05-01T04:17:00.854Z,22.08
2023-05-01T04:19:30.771Z,23.65
2023-05-01T04:22:01.396Z,15.63
2023-05-01T04:24:34.407Z,13.63
2023-05-01T04:27:05.691Z,18.90
2023-05-01T04:29:33.860Z,19.80
2023-05-01T04:32:03.542Z,20.08
2023-05-01T04:34:31.994Z,17.13
2023-05-01T04:37:00.114Z,14.27
2023-05-01T04:39:31.035Z,20.58
2023-05-01T04:41:59.396Z,13.80
2023-05-01T04:44:28.065Z,16.30
2023-05-01T04:46:58.076Z,13.25
2023-05-01T04:49:29.831Z,20.95
2023-05-01T04:51:58.404Z,18.63
2023-05-01T04:54:32.272Z,15.45
2023-05-01T04:57:00.422Z,19.15
2023-05-01T04:59:31.151Z,18.15
2023-05-01T05:01:59.356Z,15.60
2023-05-01T05:04:29.140Z,17.38
2023-05-01T05:06:59.755Z,16.92
2023-05-01T05:09:40.378Z,15.15
2023-05-01T05:12:08.497Z,16.48
2023-05-01T05:14:37.432Z,17.02
2023-05-01T05:17:06.234Z,13.07
2023-05-01T05:19:35.642Z,15.77
2023-05-01T05:22:04.348Z,11.32
2023-05-01T05:24:37.645Z,16.70
2023-05-01T05:27:06.945Z,12.63
2023-05-01T05:29:35.539Z,13.70
2023-05-01T05:32:06.213Z,18.10
2023-05-01T05:34:36.110Z,13.60
2023-05-01T05:37:04.157Z,12.45
2023-05-01T05:39:36.463Z,15.82
2023-05-01T05:42:04.698Z,13.45
2023-05-01T05:44:35.994Z,14.13
2023-05-01T05:47:04.461Z,9.77
2023-05-01T05:49:36.472Z,12.50
2023-05-01T05:52:04.811Z,15.15
2023-05-01T05:54:33.528Z,12.27
2023-05-01T05:57:02.613Z,14.38
2023-05-01T05:59:31.412Z,14.93
2023-05-01T06:01:59.742Z,12.52
2023-05-01T06:04:27.881Z,10.45
2023-05-01T06:06:57.923Z,11.73
2023-05-01T06:09:26.309Z,12.88
2023-05-01T06:11:54.370Z,10.60
2023-05-01T06:14:22.488Z,14.43
2023-05-01T06:16:50.661Z,10.38
2023-05-01T06:19:18.836Z,10.60
2023-05-01T06:21:52.273Z,11.35
2023-05-01T06:24:22.124Z,13.45
2023-05-01T06:26:52.661Z,10.87
2023-05-01T06:29:20.790Z,7.28
2023-05-01T06:31:49.003Z,13.63
2023-05-01T06:34:17.415Z,10.07
2023-05-01T06:36:50.213Z,11.57
2023-05-01T06:39:18.332Z,11.25
2023-05-01T06:41:49.406Z,12.98
2023-05-01T06:44:18.433Z,9.48
2023-05-01T06:46:48.905Z,13.05
2023-05-01T06:49:19.489Z,8.27
2023-05-01T06:51:49.624Z,8.68
2023-05-01T06:54:17.685Z,13.27
2023-05-01T06:56:50.050Z,11.63
2023-05-01T06:59:18.184Z,11.15
2023-05-01T07:01:46.435Z,8.95
2023-05-01T07:04:14.607Z,10.02
2023-05-01T07:06:42.770Z,12.48
2023-05-01T07:09:11.549Z,15.00
2023-05-01T07:11:39.600Z,11.45
2023-05-01T07:14:09.305Z,9.73
2023-05-01T07:16:39.858Z,11.95
2023-05-01T07:19:07.984Z,12.30
2023-05-01T07:21:36.088Z,10.70
2023-05-01T07:24:04.156Z,8.95
2023-05-01T07:26:32.404Z,9.65
2023-05-01T07:29:00.530Z,9.10
2023-05-01T07:31:30.062Z,8.50
2023-05-01T07:33:58.164Z,11.05
2023-05-01T07:36:26.308Z,7.60
2023-05-01T07:38:55.357Z,10.63
2023-05-01T07:41:25.359Z,10.50
2023-05-01T07:43:53.627Z,9.65
2023-05-01T07:46:22.219Z,8.68
2023-05-01T07:48:51.887Z,13.52
2023-05-01T07:51:19.992Z,9.18
2023-05-01T07:53:48.600Z,13.10
2023-05-01T07:56:17.003Z,9.50
2023-05-01T07:58:45.145Z,10.27
2023-05-01T08:01:13.278Z,12.40
2023-05-01T08:03:42.027Z,10.20
2023-05-01T08:06:11.604Z,9.23
2023-05-01T08:08:39.819Z,11.75
2023-05-01T08:11:07.853Z,8.27
2023-05-01T08:13:36.352Z,10.32
2023-05-01T08:16:05.417Z,11.68
2023-05-01T08:18:35.766Z,9.50
2023-05-01T08:21:03.871Z,10.43
2023-05-01T08:23:33.338Z,10.13
2023-05-01T08:26:01.379Z,9.85
2023-05-01T08:28:32.311Z,9.32
2023-05-01T08:31:00.510Z,6.97
2023-05-01T08:33:28.682Z,8.45
2023-05-01T08:35:56.905Z,13.10
2023-05-01T08:38:25.150Z,10.50
2023-05-01T08:40:56.741Z,8.80
2023-05-01T08:43:26.090Z,12.50
2023-05-01T08:45:57.162Z,10.55
2023-05-01T08:48:26.962Z,10.45
2023-05-01T08:50:58.688Z,9.52
2023-05-01T08:53:30.561Z,9.82
2023-05-01T08:56:06.799Z,10.90
2023-05-01T08:58:36.506Z,9.90
2023-05-01T09:01:05.086Z,11.57
2023-05-01T09:03:33.944Z,7.82
2023-05-01T09:06:04.682Z,10.07
2023-05-01T09:08:32.882Z,12.95
2023-05-01T09:11:03.818Z,11.70
2023-05-01T09:13:32.484Z,12.88
2023-05-01T09:16:01.647Z,9.93
2023-05-01T09:18:31.152Z,9.02
2023-05-01T09:20:59.893Z,9.52
2023-05-01T09:23:28.149Z,9.10
2023-05-01T09:25:57.439Z,9.10
2023-05-01T09:28:42.729Z,9.73
2023-05-01T09:31:24.574Z,9.70
2023-05-01T09:33:55.091Z,7.28
2023-05-01T09:36:24.399Z,9.98
2023-05-01T09:38:55.364Z,7.28
2023-05-01T09:41:24.087Z,9.60
2023-05-01T09:43:55.309Z,8.60
2023-05-01T09:46:24.545Z,9.60
2023-05-01T09:49:00.052Z,12.85
2023-05-01T09:51:29.401Z,8.50
2023-05-01T09:53:58.329Z,9.88
2023-05-01T09:56:27.872Z,14.18
2023-05-01T09:58:59.844Z,9.77
2023-05-01T10:01:41.102Z,11.10
2023-05-01T10:04:09.967Z,10.18
2023-05-01T10:06:38.999Z,12.02
2023-05-01T10:09:09.427Z,11.13
2023-05-01T10:11:49.498Z,11.68
2023-05-01T10:14:20.282Z,15.23
2023-05-01T10:16:49.594Z,10.52
2023-05-01T10:19:18.367Z,9.93
2023-05-01T10:21:46.473Z,10.30
2023-05-01T10:24:16.243Z,16.30
2023-05-01T10:26:44.857Z,11.93
2023-05-01T10:29:13.897Z,11.77
2023-05-01T10:31:43.395Z,11.13
2023-05-01T10:34:13.457Z,15.88
2023-05-01T10:36:46.244Z,8.63
2023-05-01T10:42:05.576Z,11.17
2023-05-01T10:44:34.952Z,8.40
2023-05-01T10:47:41.373Z,9.82
2023-05-01T10:50:12.221Z,10.57
2023-05-01T10:53:18.281Z,10.50
2023-05-01T10:55:47.827Z,10.40
2023-05-01T10:58:46.305Z,10.30
2023-05-01T11:01:34.623Z,11.27
2023-05-01T11:04:05.228Z,12.23
2023-05-01T11:06:35.198Z,8.70
2023-05-01T11:09:04.571Z,15.05
2023-05-01T11:11:51.311Z,11.00
2023-05-01T11:14:19.353Z,10.82
2023-05-01T11:16:49.114Z,10.23
2023-05-01T11:19:47.570Z,10.73
2023-05-01T11:22:17.130Z,11.82
2023-05-01T11:24:45.336Z,14.23
2023-05-01T11:27:16.848Z,10.27
2023-05-01T11:29:49.417Z,12.65
2023-05-01T11:32:21.050Z,7.65
2023-05-01T11:34:52.220Z,7.72
2023-05-01T11:37:22.026Z,12.43
2023-05-01T11:39:51.567Z,11.05
2023-05-01T11:42:23.525Z,11.67
2023-05-01T11:45:08.104Z,8.82
2023-05-01T11:47:36.988Z,9.38
2023-05-01T11:50:05.721Z,8.65
2023-05-01T11:52:45.509Z,11.80
2023-05-01T11:55:13.633Z,9.48
2023-05-01T11:57:52.076Z,10.38
2023-05-01T12:00:29.479Z,9.90
2023-05-01T12:03:01.995Z,8.85
2023-05-01T12:08:11.210Z,8.55
2023-05-01T12:10:43.347Z,10.23
2023-05-01T12:13:13.402Z,7.10
2023-05-01T12:15:45.488Z,11.73
2023-05-01T12:18:14.652Z,12.52
2023-05-01T12:20:43.830Z,9.82
2023-05-01T12:23:16.124Z,11.20
2023-05-01T12:25:45.450Z,10.88
2023-05-01T12:28:15.820Z,10.15
2023-05-01T12:30:45.682Z,11.32
2023-05-01T12:33:15.086Z,9.85
2023-05-01T12:35:45.397Z,11.20
2023-05-01T12:38:16.671Z,11.23
2023-05-01T12:40:53.919Z,12.75
2023-05-01T12:43:23.344Z,19.58
2023-05-01T12:45:54.761Z,11.63
2023-05-01T12:48:23.201Z,9.93
2023-05-01T12:50:54.647Z,12.98
2023-05-01T12:53:25.241Z,11.82
2023-05-01T12:55:55.047Z,9.68
2023-05-01T12:58:23.700Z,12.77
2023-05-01T13:00:53.752Z,15.05
2023-05-01T13:03:25.502Z,10.98
2023-05-01T13:05:55.397Z,13.90
2023-05-01T13:08:29.895Z,10.95
2023-05-01T13:10:59.289Z,13.82
2023-05-01T13:13:28.932Z,12.75
2023-05-01T13:16:06.352Z,9.70
2023-05-01T13:18:35.392Z,15.38
2023-05-01T13:21:09.656Z,10.70
2023-05-01T13:23:39.718Z,11.27
2023-05-01T13:26:09.500Z,10.43
2023-05-01T13:28:44.902Z,9.77
2023-05-01T13:31:14.534Z,10.57
2023-05-01T13:33:43.505Z,9.75
2023-05-01T13:36:22.143Z,13.82
2023-05-01T13:38:57.559Z,9.23
2023-05-01T13:41:27.253Z,13.20
2023-05-01T13:43:57.869Z,8.50
2023-05-01T13:46:27.338Z,8.57
2023-05-01T13:48:56.211Z,11.77
2023-05-01T13:51:26.342Z,10.65
2023-05-01T13:53:57.452Z,13.05
2023-05-01T13:56:26.066Z,13.23
2023-05-01T13:58:56.369Z,8.73
2023-05-01T14:01:26.983Z,12.02
2023-05-01T14:03:57.086Z,11.32
2023-05-01T14:06:25.336Z,11.38
2023-05-01T14:08:58.842Z,9.40
2023-05-01T14:11:27.481Z,14.43
2023-05-01T14:13:59.919Z,10.88
2023-05-01T14:16:31.494Z,15.18
2023-05-01T14:18:59.667Z,13.30
2023-05-01T14:21:28.866Z,11.80
2023-05-01T14:23:58.976Z,9.25
2023-05-01T14:26:27.462Z,10.38
2023-05-01T14:28:55.578Z,11.32
2023-05-01T14:31:28.495Z,14.13
2023-05-01T14:33:58.369Z,12.20
2023-05-01T14:36:28.237Z,12.00
2023-05-01T14:38:59.636Z,14.90
2023-05-01T14:41:28.084Z,10.93
2023-05-01T14:43:56.459Z,16.33
2023-05-01T14:46:30.070Z,12.65
2023-05-01T14:48:59.213Z,14.30
2023-05-01T14:51:28.535Z,10.93
2023-05-01T14:53:58.172Z,9.20
2023-05-01T14:56:26.349Z,14.20
2023-05-01T14:58:54.492Z,18.90
2023-05-01T15:01:23.227Z,11.95
2023-05-01T15:03:51.811Z,10.70
2023-05-01T15:06:20.258Z,14.48
2023-05-01T15:08:48.448Z,13.70
2023-05-01T15:11:18.612Z,15.77
2023-05-01T15:13:47.153Z,14.63
2023-05-01T15:16:18.425Z,14.38
2023-05-01T15:18:46.863Z,16.65
2023-05-01T15:21:15.104Z,13.15
2023-05-01T15:23:45.323Z,11.45
2023-05-01T15:26:13.785Z,12.88
2023-05-01T15:28:43.345Z,13.80
2023-05-01T15:31:11.821Z,12.40
2023-05-01T15:33:40.047Z,10.20
2023-05-01T15:36:08.778Z,17.67
2023-05-01T15:38:36.838Z,18.33
2023-05-01T15:41:05.037Z,10.48
2023-05-01T15:43:33.425Z,17.15
2023-05-01T15:46:03.069Z,13.88
2023-05-01T15:48:31.286Z,13.88
2023-05-01T15:50:59.411Z,11.98
2023-05-01T15:53:27.778Z,15.93
2023-05-01T15:55:58.353Z,14.90
2023-05-01T15:58:26.494Z,10.82
2023-05-01T16:00:54.637Z,11.48
2023-05-01T16:03:24.259Z,11.10
2023-05-01T16:05:52.512Z,14.20
2023-05-01T16:08:21.034Z,19.83
2023-05-01T16:10:49.309Z,13.52
2023-05-01T16:13:17.576Z,20.67
2023-05-01T16:15:45.679Z,14.43
2023-05-01T16:18:20.916Z,17.60
2023-05-01T16:20:53.380Z,15.52
2023-05-01T16:23:22.155Z,16.30
2023-05-01T16:25:50.382Z,18.23
2023-05-01T16:28:18.675Z,14.23
2023-05-01T16:30:46.973Z,11.88
2023-05-01T16:33:18.847Z,12.15
2023-05-01T16:35:50.289Z,10.90
2023-05-01T16:38:19.486Z,12.98
2023-05-01T16:40:49.041Z,15.05
2023-05-01T16:43:17.275Z,13.77
2023-05-01T16:45:46.680Z,14.98
2023-05-01T16:48:21.172Z,26.20
2023-05-01T16:50:50.956Z,21.98
2023-05-01T16:53:19.075Z,16.25
2023-05-01T16:55:47.216Z,18.38
2023-05-01T16:58:15.383Z,24.00
2023-05-01T17:00:43.820Z,15.48
2023-05-01T17:03:11.984Z,18.95
2023-05-01T17:05:40.108Z,16.85
2023-05-01T17:08:10.189Z,23.25
2023-05-01T17:10:40.609Z,13.10
2023-05-01T17:13:08.957Z,16.25
2023-05-01T17:15:37.055Z,11.43
2023-05-01T17:18:07.978Z,12.23
2023-05-01T17:20:36.086Z,16.77
2023-05-01T17:23:04.472Z,18.80
2023-05-01T17:25:33.975Z,16.20
2023-05-01T17:28:02.119Z,21.17
2023-05-01T17:30:30.246Z,17.05
2023-05-01T17:32:58.622Z,15.93
2023-05-01T17:35:27.228Z,16.88
2023-05-01T17:37:55.284Z,23.35
2023-05-01T17:40:23.442Z,21.77
2023-05-01T17:42:52.931Z,17.08
2023-05-01T17:45:21.250Z,14.80
2023-05-01T17:47:49.526Z,20.52
2023-05-01T17:50:17.648Z,13.77
2023-05-01T17:52:48.095Z,13.32
2023-05-01T17:55:17.953Z,13.60
2023-05-01T17:57:47.369Z,16.98
2023-05-01T18:00:17.702Z,16.35
2023-05-01T18:02:47.499Z,18.23
2023-05-01T18:05:16.312Z,14.35
2023-05-01T18:07:44.367Z,24.95
2023-05-01T18:10:12.730Z,21.08
2023-05-01T18:12:41.006Z,27.38
2023-05-01T18:15:10.054Z,21.30
2023-05-01T18:17:39.564Z,22.70
2023-05-01T18:20:10.691Z,22.45
2023-05-01T18:22:38.826Z,19.98
2023-05-01T18:25:07.859Z,37.60
2023-05-01T18:27:37.450Z,44.70
2023-05-01T18:30:06.179Z,35.78
2023-05-01T18:32:46.968Z,41.72
2023-05-01T18:35:18.884Z,36.57
2023-05-01T18:37:47.304Z,40.45
2023-05-01T18:40:15.474Z,33.95
2023-05-01T18:42:43.773Z,24.95
2023-05-01T18:45:14.241Z,23.58
2023-05-01T18:47:42.519Z,28.63
2023-05-01T18:50:11.492Z,30.77
2023-05-01T18:52:42.178Z,34.28
2023-05-01T18:55:11.288Z,32.35
2023-05-01T18:57:41.628Z,28.85
2023-05-01T19:00:11.313Z,26.75
2023-05-01T19:02:39.579Z,20.92
2023-05-01T19:05:08.696Z,20.85
2023-05-01T19:07:37.399Z,20.60
2023-05-01T19:10:08.422Z,23.83
2023-05-01T19:12:36.683Z,28.35
2023-05-01T19:15:05.250Z,25.27
2023-05-01T19:17:33.922Z,26.08
2023-05-01T19:20:04.202Z,41.72
2023-05-01T19:22:32.541Z,31.83
2023-05-01T19:25:01.155Z,36.10
2023-05-01T19:27:31.318Z,30.42
2023-05-01T19:30:02.159Z,28.27
2023-05-01T19:32:31.116Z,35.53
2023-05-01T19:34:59.600Z,36.80
2023-05-01T19:37:28.414Z,32.20
2023-05-01T19:39:56.876Z,31.13
2023-05-01T19:42:25.190Z,35.83
2023-05-01T19:44:54.811Z,33.88
2023-05-01T19:47:23.039Z,38.17
2023-05-01T19:49:52.346Z,33.70
2023-05-01T19:52:20.640Z,40.30
2023-05-01T19:54:48.943Z,36.05
2023-05-01T19:57:17.809Z,41.67
2023-05-01T19:59:45.908Z,46.80
2023-05-01T20:02:15.361Z,39.72
2023-05-01T20:04:43.526Z,39.72
2023-05-01T20:07:11.917Z,41.47
2023-05-01T20:09:40.142Z,56.40
2023-05-01T20:12:08.277Z,48.80
2023-05-01T20:14:36.400Z,43.25
2023-05-01T20:17:06.412Z,47.72
2023-05-01T20:19:39.614Z,44.65
2023-05-01T20:22:08.354Z,53.58
2023-05-01T20:24:36.758Z,48.00
2023-05-01T20:27:05.554Z,50.70
2023-05-01T20:29:36.058Z,50.05
2023-05-01T20:32:04.655Z,45.05
2023-05-01T20:34:32.816Z,48.97
2023-05-01T20:37:02.340Z,56.95
2023-05-01T20:39:30.699Z,39.35
2023-05-01T20:41:59.377Z,43.13
2023-05-01T20:44:27.782Z,47.20
2023-05-01T20:46:56.118Z,44.30
2023-05-01T20:49:24.305Z,40.38
2023-05-01T20:51:52.351Z,71.93
2023-05-01T20:54:21.923Z,72.32
2023-05-01T20:56:50.018Z,55.45
2023-05-01T20:59:18.262Z,60.25
2023-05-01T21:01:46.365Z,63.88
2023-05-01T21:04:14.602Z,59.20
2023-05-01T21:06:42.900Z,60.47
2023-05-01T21:09:14.824Z,56.72
2023-05-01T21:11:44.312Z,52.83
2023-05-01T21:14:12.494Z,55.08
2023-05-01T21:16:41.066Z,42.97
2023-05-01T21:19:11.668Z,46.60
2023-05-01T21:21:40.081Z,51.90
2023-05-01T21:24:09.286Z,49.42
2023-05-01T21:26:38.701Z,49.10
2023-05-01T21:29:08.161Z,40.50
2023-05-01T21:31:36.809Z,40.72
2023-05-01T21:34:05.435Z,36.97
2023-05-01T21:36:33.648Z,41.15
2023-05-01T21:39:02.154Z,42.35
2023-05-01T21:41:30.372Z,45.15
2023-05-01T21:43:58.453Z,40.08
2023-05-01T21:46:27.895Z,43.30
2023-05-01T21:48:56.457Z,49.00
2023-05-01T21:51:28.421Z,45.83
2023-05-01T21:53:56.646Z,48.50
2023-05-01T21:56:24.787Z,62.42
2023-05-01T21:59:00.662Z,42.47
2023-05-01T22:01:30.292Z,43.78
2023-05-01T22:03:59.068Z,42.58
2023-05-01T22:06:28.180Z,40.05
2023-05-01T22:08:56.333Z,32.10
2023-05-01T22:11:24.644Z,32.20
2023-05-01T22:13:52.724Z,32.85
2023-05-01T22:16:22.908Z,27.35
2023-05-01T22:18:52.323Z,34.13
2023-05-01T22:21:20.419Z,30.30
2023-05-01T22:23:48.515Z,23.40
2023-05-01T22:26:16.576Z,27.25
2023-05-01T22:28:45.321Z,20.98
2023-05-01T22:31:13.397Z,26.30
2023-05-01T22:33:41.526Z,20.08
2023-05-01T22:36:13.506Z,21.42
2023-05-01T22:38:41.621Z,20.10
2023-05-01T22:41:11.931Z,18.70
2023-05-01T22:43:40.086Z,19.05
2023-05-01T22:46:08.390Z,18.70
2023-05-01T22:48:36.584Z,22.98
2023-05-01T22:51:04.961Z,16.55
2023-05-01T22:53:34.498Z,17.10
2023-05-01T22:56:02.592Z,17.27
2023-05-01T22:58:30.685Z,18.83
2023-05-01T23:01:00.408Z,18.13
2023-05-01T23:03:28.590Z,17.17
2023-05-01T23:05:57.136Z,19.95
2023-05-01T23:08:25.739Z,17.33
2023-05-01T23:10:55.164Z,16.52
2023-05-01T23:13:27.080Z,14.55
2023-05-01T23:15:55.196Z,18.38
2023-05-01T23:18:25.541Z,14.05
2023-05-01T23:20:53.663Z,12.90
2023-05-01T23:23:22.320Z,17.42
2023-05-01T23:25:50.972Z,15.07
2023-05-01T23:28:24.707Z,16.45
2023-05-01T23:30:56.525Z,15.05
2023-05-01T23:33:26.276Z,12.30
2023-05-01T23:35:54.394Z,13.65
2023-05-01T23:38:25.183Z,12.93
2023-05-01T23:40:53.438Z,14.15
2023-05-01T23:43:23.559Z,15.77
2023-05-01T23:45:51.861Z,15.57
2023-05-01T23:48:20.006Z,14.85
2023-05-01T23:50:48.716Z,12.00
2023-05-01T23:53:16.794Z,14.82
2023-05-01T23:55:46.839Z,13.27
2023-05-01T23:58:15.221Z,12.00
